»·PEaware :: N654SW KBFL-KMRY

N654SW :: KBFL-KMRY

FLIGHT INFORMATION

Flight Status: Arrived
Operator: Privately registered:
United States
More flights under this callsign
Pilot: Sergei F. (8485)
Aircraft: BOEING 737-300
(B733)
More flights by this aircraft type
Origin: KBFL Meadows
United States
Destination: KMRY Monterey Peninsula
United States
More flights between these airports :: More routes between these airports
Route: +MEADO4 PXN V230 SNS
File this flight plan on PilotEdge
Remarks:
Altitude:
(Current/Filed)
24,000ft
Speed:
(Current/Filed)
400kts
Departed: 12-Sep-20 07:44 AM
Arrived: 12-Sep-20 08:26 AM
Distance/Time
Traveled:
152nm/0:42
Distance/Time
To Go:
Arrived

Flight Plot

Page will automatically refresh every two minutes.

Flight plan parsing failed; only flown route is shown


Map Options




Map Legend


Flown Route
Filed Route
Departure Airport
Arrival Airport
Navaid (VOR, NDB)
Fix

Horizontal Profiles

Position Reports

Time Latitude Longitude Heading Altitude Ground
Speed
12-Sep-20 07:12 35.437117 -119.055261 89 503ft 0kts
12-Sep-20 07:13 35.437117 -119.055261 89 503ft 0kts
12-Sep-20 07:14 35.437117 -119.055261 89 503ft 0kts
12-Sep-20 07:15 35.437117 -119.055261 89 503ft 0kts
12-Sep-20 07:16 35.437117 -119.055261 89 503ft 0kts
12-Sep-20 07:18 35.437117 -119.055261 89 503ft 0kts
12-Sep-20 07:19 35.437117 -119.055261 89 503ft 0kts
12-Sep-20 07:20 35.437117 -119.055261 89 503ft 0kts
12-Sep-20 07:21 35.437117 -119.055261 89 503ft 0kts
12-Sep-20 07:22 35.437117 -119.055261 89 503ft 0kts
12-Sep-20 07:23 35.437117 -119.055261 89 503ft 0kts
12-Sep-20 07:24 35.437117 -119.055261 89 503ft 0kts
12-Sep-20 07:25 35.437117 -119.055261 89 503ft 0kts
12-Sep-20 07:26 35.437117 -119.055261 89 503ft 0kts
12-Sep-20 07:27 35.437101 -119.055396 60 503ft 2kts
12-Sep-20 07:28 35.437051 -119.055874 142 502ft 0kts
12-Sep-20 07:29 35.437051 -119.055874 142 502ft 0kts
12-Sep-20 07:30 35.437051 -119.055874 142 502ft 0kts
12-Sep-20 07:31 35.437051 -119.055874 142 502ft 0kts
12-Sep-20 07:32 35.437051 -119.055874 142 502ft 0kts
12-Sep-20 07:32 35.437051 -119.055874 142 502ft 0kts
12-Sep-20 07:34 35.437051 -119.055874 142 502ft 0kts
12-Sep-20 07:35 35.437051 -119.055874 142 502ft 0kts
12-Sep-20 07:35 35.437051 -119.055874 142 502ft 0kts
12-Sep-20 07:37 35.436051 -119.055249 201 500ft 8kts
12-Sep-20 07:38 35.434640 -119.054914 135 495ft 12kts
12-Sep-20 07:38 35.431985 -119.051698 135 495ft 19kts
12-Sep-20 07:39 35.428363 -119.047319 134 490ft 14kts
12-Sep-20 07:41 35.426243 -119.044805 155 484ft 3kts
12-Sep-20 07:41 35.425930 -119.044902 224 483ft 0kts
12-Sep-20 07:42 35.425385 -119.045591 237 481ft 5kts
12-Sep-20 07:43 35.427821 -119.048871 315 486ft 93kts
12-Sep-20 07:44 35.456811 -119.087585 313 3106ft 167kts
12-Sep-20 07:45 35.493711 -119.138673 313 5689ft 228kts
12-Sep-20 07:46 35.540542 -119.203552 313 8045ft 284kts
12-Sep-20 07:47 35.594945 -119.278594 313 9977ft 299kts
12-Sep-20 07:48 35.650589 -119.355081 313 10000ft 298kts
12-Sep-20 07:49 35.707339 -119.432397 314 12285ft 315kts
12-Sep-20 07:50 35.772442 -119.513134 317 14716ft 363kts
12-Sep-20 07:51 35.843011 -119.604307 316 17986ft 374kts
12-Sep-20 07:52 35.915163 -119.699739 315 20894ft 385kts
12-Sep-20 07:53 35.988393 -119.796938 315 23526ft 394kts
12-Sep-20 07:54 36.063073 -119.896256 315 24022ft 386kts
12-Sep-20 07:55 36.136054 -119.993375 315 24037ft 385kts
12-Sep-20 07:56 36.208644 -120.090462 315 24037ft 385kts
12-Sep-20 07:57 36.281007 -120.187688 315 24037ft 385kts
12-Sep-20 07:58 36.353674 -120.285623 315 24037ft 385kts
12-Sep-20 07:59 36.426310 -120.383748 315 24037ft 385kts
12-Sep-20 08:00 36.498339 -120.481342 315 24037ft 385kts
12-Sep-20 08:01 36.570420 -120.579213 315 23807ft 378kts
12-Sep-20 08:02 36.641505 -120.676122 314 21348ft 386kts
12-Sep-20 08:03 36.708675 -120.775974 293 19211ft 373kts
12-Sep-20 08:04 36.708184 -120.906195 265 16940ft 378kts
12-Sep-20 08:05 36.700252 -121.034161 264 14817ft 364kts
12-Sep-20 08:06 36.692778 -121.156731 264 12900ft 346kts
12-Sep-20 08:07 36.685426 -121.272239 264 11417ft 316kts
12-Sep-20 08:08 36.678849 -121.375431 264 10523ft 279kts
12-Sep-20 08:09 36.672866 -121.467304 264 9959ft 262kts
12-Sep-20 08:10 36.666980 -121.557876 264 9995ft 261kts
12-Sep-20 08:11 36.662182 -121.648108 266 9992ft 261kts
12-Sep-20 08:12 36.658163 -121.738301 265 9214ft 257kts
12-Sep-20 08:13 36.654262 -121.823140 266 8314ft 230kts
12-Sep-20 08:14 36.650925 -121.898051 266 7365ft 209kts
12-Sep-20 08:15 36.647729 -121.970345 267 6465ft 206kts
12-Sep-20 08:16 36.644358 -122.040634 264 5567ft 202kts
12-Sep-20 08:17 36.638015 -122.109244 278 4706ft 198kts
12-Sep-20 08:18 36.671634 -122.114601 84 3711ft 165kts
12-Sep-20 08:19 36.661340 -122.059562 112 2869ft 162kts
12-Sep-20 08:20 36.642743 -122.009408 112 2594ft 159kts
12-Sep-20 08:21 36.626261 -121.960781 111 1979ft 138kts
12-Sep-20 08:22 36.611512 -121.917069 113 1228ft 136kts
12-Sep-20 08:23 36.596978 -121.873581 111 501ft 136kts
12-Sep-20 08:24 36.584591 -121.837279 113 239ft 56kts
12-Sep-20 08:25 36.582821 -121.834717 275 236ft 4kts
12-Sep-20 08:26 36.582860 -121.835024 286 237ft 2kts
12-Sep-20 08:27 36.583486 -121.836906 292 243ft 8kts
12-Sep-20 08:28 36.585160 -121.841840 292 228ft 17kts
12-Sep-20 08:29 36.586662 -121.846051 303 197ft 12kts
12-Sep-20 08:30 36.587289 -121.848447 234 187ft 4kts
12-Sep-20 08:31 36.587068 -121.848818 232 187ft 0kts
12-Sep-20 08:32 36.587068 -121.848818 232 187ft 0kts

Navigation Log

Ident Type
Flight plan parsing failed, navigation log unavailable